createdAt,value
2023-04-21T00:00:27.926Z,17.73
2023-04-21T00:02:56.556Z,18.00
2023-04-21T00:05:25.280Z,18.43
2023-04-21T00:07:53.892Z,19.83
2023-04-21T00:10:22.497Z,20.83
2023-04-21T00:12:52.391Z,20.83
2023-04-21T00:15:20.874Z,19.20
2023-04-21T00:17:49.244Z,19.70
2023-04-21T00:20:17.632Z,21.40
2023-04-21T00:22:46.184Z,19.50
2023-04-21T00:25:15.209Z,19.17
2023-04-21T00:27:43.517Z,21.50
2023-04-21T00:30:13.734Z,18.30
2023-04-21T00:32:42.096Z,22.17
2023-04-21T00:35:10.941Z,20.70
2023-04-21T00:37:40.392Z,20.70
2023-04-21T00:40:09.502Z,21.17
2023-04-21T00:42:37.982Z,20.90
2023-04-21T00:45:06.942Z,22.03
2023-04-21T00:47:36.948Z,24.77
2023-04-21T00:50:05.801Z,22.03
2023-04-21T00:52:34.246Z,22.57
2023-04-21T00:55:02.609Z,23.73
2023-04-21T00:57:31.017Z,24.30
2023-04-21T00:59:59.569Z,25.03
2023-04-21T01:02:28.804Z,22.23
2023-04-21T01:04:58.906Z,22.97
2023-04-21T01:07:27.292Z,27.50
2023-04-21T01:09:56.139Z,23.97
2023-04-21T01:12:24.649Z,23.40
2023-04-21T01:14:53.080Z,27.50
2023-04-21T01:17:21.588Z,26.70
2023-04-21T01:19:49.965Z,24.07
2023-04-21T01:22:19.955Z,23.33
2023-04-21T01:24:49.048Z,24.90
2023-04-21T01:27:18.688Z,28.53
2023-04-21T01:29:47.831Z,27.37
2023-04-21T01:32:17.155Z,25.83
2023-04-21T01:34:45.796Z,28.17
2023-04-21T01:37:14.444Z,27.87
2023-04-21T01:39:44.378Z,25.67
2023-04-21T01:42:12.849Z,27.63
2023-04-21T01:44:41.263Z,25.60
2023-04-21T01:47:09.943Z,26.80
2023-04-21T01:49:38.463Z,27.13
2023-04-21T01:52:07.114Z,30.20
2023-04-21T01:54:35.490Z,26.47
2023-04-21T01:57:05.652Z,29.63
2023-04-21T01:59:34.102Z,27.90
2023-04-21T02:02:03.168Z,30.03
2023-04-21T02:04:31.738Z,29.10
2023-04-21T02:07:00.231Z,24.97
2023-04-21T02:09:28.599Z,27.43
2023-04-21T02:11:57.447Z,28.50
2023-04-21T02:14:27.362Z,30.80
2023-04-21T02:16:56.871Z,32.13
2023-04-21T02:19:25.381Z,31.87
2023-04-21T02:21:53.833Z,31.60
2023-04-21T02:24:22.283Z,29.53
2023-04-21T02:26:50.826Z,29.60
2023-04-21T02:29:19.596Z,32.23
2023-04-21T02:32:00.668Z,30.70
2023-04-21T02:34:33.927Z,28.73
2023-04-21T02:37:02.563Z,28.63
2023-04-21T02:39:30.959Z,31.93
2023-04-21T02:41:59.721Z,33.20
2023-04-21T02:44:28.226Z,27.20
2023-04-21T02:46:58.130Z,29.93
2023-04-21T02:49:26.693Z,31.63
2023-04-21T02:51:55.313Z,30.83
2023-04-21T02:54:24.370Z,29.53
2023-04-21T02:56:52.908Z,28.60
2023-04-21T02:59:22.090Z,29.00
2023-04-21T03:01:51.110Z,31.20
2023-04-21T03:04:22.301Z,33.77
2023-04-21T03:06:50.881Z,28.47
2023-04-21T03:09:19.677Z,29.13
2023-04-21T03:11:48.339Z,30.70
2023-04-21T03:14:16.792Z,31.97
2023-04-21T03:16:45.287Z,28.00
2023-04-21T03:19:13.735Z,29.13
2023-04-21T03:21:43.615Z,31.00
2023-04-21T03:24:12.119Z,29.53
2023-04-21T03:26:41.286Z,29.57
2023-04-21T03:29:12.801Z,31.57
2023-04-21T03:31:41.310Z,28.50
2023-04-21T03:34:09.968Z,30.57
2023-04-21T03:36:38.348Z,30.93
2023-04-21T03:39:19.382Z,29.33
2023-04-21T03:41:48.770Z,27.83
2023-04-21T03:44:17.189Z,33.90
2023-04-21T03:46:45.808Z,30.80
2023-04-21T03:49:14.231Z,34.57
2023-04-21T03:51:49.074Z,34.00
2023-04-21T03:54:18.843Z,33.50
2023-04-21T03:56:47.325Z,34.97
2023-04-21T03:59:15.709Z,35.80
2023-04-21T04:01:44.264Z,36.73
2023-04-21T04:04:13.142Z,37.47
2023-04-21T04:06:42.085Z,33.07
2023-04-21T04:09:10.475Z,37.50
2023-04-21T04:11:40.275Z,39.43
2023-04-21T04:14:08.705Z,39.17
2023-04-21T04:16:37.502Z,40.67
2023-04-21T04:19:05.863Z,39.80
2023-04-21T04:21:34.419Z,44.07
2023-04-21T04:24:05.388Z,46.40
2023-04-21T04:26:35.584Z,41.90
2023-04-21T04:29:06.197Z,40.00
2023-04-21T04:31:34.765Z,39.07
2023-04-21T04:34:03.456Z,45.17
2023-04-21T04:36:32.338Z,44.80
2023-04-21T04:39:00.917Z,39.67
2023-04-21T04:41:33.708Z,39.57
2023-04-21T04:44:05.171Z,40.37
2023-04-21T04:46:35.301Z,44.10
2023-04-21T04:49:03.706Z,42.40
2023-04-21T04:51:32.817Z,40.03
2023-04-21T04:54:01.222Z,44.40
2023-04-21T04:56:29.651Z,47.43
2023-04-21T04:58:58.066Z,48.73
2023-04-21T05:01:30.326Z,43.93
2023-04-21T05:04:00.388Z,47.33
2023-04-21T05:06:28.902Z,47.23
2023-04-21T05:08:57.304Z,48.50
2023-04-21T05:11:25.689Z,50.07
2023-04-21T05:13:54.365Z,48.73
2023-04-21T05:16:22.908Z,48.17
2023-04-21T05:18:54.009Z,44.10
2023-04-21T05:21:28.407Z,48.57
2023-04-21T05:23:57.177Z,49.87
2023-04-21T05:26:25.696Z,48.97
2023-04-21T05:28:54.130Z,47.20
2023-04-21T05:31:22.518Z,45.13
2023-04-21T05:33:50.974Z,49.03
2023-04-21T05:36:20.246Z,46.07
2023-04-21T05:38:50.012Z,46.23
2023-04-21T05:41:18.853Z,49.00
2023-04-21T05:43:47.666Z,47.23
2023-04-21T05:46:16.141Z,50.87
2023-04-21T05:48:44.710Z,50.50
2023-04-21T05:51:13.441Z,52.90
2023-04-21T05:53:41.912Z,55.50
2023-04-21T05:56:11.713Z,50.17
2023-04-21T05:58:40.238Z,53.13
2023-04-21T06:01:08.797Z,53.10
2023-04-21T06:03:37.287Z,52.80
2023-04-21T06:06:06.331Z,51.33
2023-04-21T06:08:34.914Z,51.53
2023-04-21T06:11:03.316Z,52.93
2023-04-21T06:13:33.055Z,52.03
2023-04-21T06:16:01.592Z,64.00
2023-04-21T06:18:30.027Z,55.10
2023-04-21T06:20:58.549Z,57.10
2023-04-21T06:23:26.951Z,57.50
2023-04-21T06:26:04.190Z,59.70
2023-04-21T06:28:34.260Z,57.20
2023-04-21T06:31:02.877Z,60.57
2023-04-21T06:33:31.302Z,57.80
2023-04-21T06:35:59.642Z,60.70
2023-04-21T06:38:28.195Z,58.37
2023-04-21T06:40:56.569Z,63.63
2023-04-21T06:43:24.959Z,59.73
2023-04-21T06:45:54.662Z,62.97
2023-04-21T06:48:24.492Z,62.03
2023-04-21T06:50:52.925Z,62.73
2023-04-21T06:53:21.806Z,60.77
2023-04-21T06:55:50.330Z,67.40
2023-04-21T06:58:21.146Z,65.97
2023-04-21T07:00:50.348Z,64.53
2023-04-21T07:03:20.221Z,65.10
2023-04-21T07:05:48.767Z,61.43
2023-04-21T07:08:17.810Z,67.13
2023-04-21T07:10:46.398Z,62.30
2023-04-21T07:13:15.935Z,60.80
2023-04-21T07:15:44.280Z,67.27
2023-04-21T07:18:12.950Z,67.73
2023-04-21T07:20:43.203Z,63.33
2023-04-21T07:23:11.566Z,61.27
2023-04-21T07:25:39.900Z,61.63
2023-04-21T07:28:08.286Z,61.63
2023-04-21T07:30:36.894Z,62.63
2023-04-21T07:33:05.376Z,64.73
2023-04-21T07:35:33.820Z,62.93
2023-04-21T07:38:03.761Z,66.77
2023-04-21T07:40:32.359Z,65.83
2023-04-21T07:43:00.852Z,62.13
2023-04-21T07:45:29.253Z,62.13
2023-04-21T07:47:57.673Z,66.70
2023-04-21T07:50:26.190Z,62.43
2023-04-21T07:52:54.683Z,63.67
2023-04-21T07:55:24.421Z,66.23
2023-04-21T07:57:52.743Z,64.20
2023-04-21T08:00:21.601Z,64.90
2023-04-21T08:02:50.081Z,59.30
2023-04-21T08:05:18.732Z,62.63
2023-04-21T08:07:47.138Z,64.33
2023-04-21T08:10:16.561Z,62.00
2023-04-21T08:12:46.585Z,57.53
2023-04-21T08:15:15.644Z,58.50
2023-04-21T08:17:44.037Z,57.23
2023-04-21T08:20:12.950Z,54.30
2023-04-21T08:22:41.456Z,53.33
2023-04-21T08:25:09.963Z,53.93
2023-04-21T08:27:40.144Z,52.50
2023-04-21T08:30:10.814Z,51.93
2023-04-21T08:32:39.296Z,50.83
2023-04-21T08:35:08.389Z,56.97
2023-04-21T08:37:38.506Z,50.23
2023-04-21T08:40:11.729Z,50.10
2023-04-21T08:42:45.446Z,50.07
2023-04-21T08:45:30.886Z,50.60
2023-04-21T08:48:06.137Z,48.13
2023-04-21T08:50:35.064Z,46.97
2023-04-21T08:53:08.685Z,50.43
2023-04-21T08:55:37.717Z,49.50
2023-04-21T08:58:12.298Z,50.17
2023-04-21T09:00:42.506Z,44.43
2023-04-21T09:03:23.182Z,43.47
2023-04-21T09:05:59.123Z,44.60
2023-04-21T09:08:28.886Z,45.00
2023-04-21T09:10:57.486Z,44.87
2023-04-21T09:13:31.188Z,45.17
2023-04-21T09:16:01.071Z,44.30
2023-04-21T09:18:31.222Z,42.43
2023-04-21T09:21:07.019Z,40.13
2023-04-21T09:23:41.421Z,42.37
2023-04-21T09:26:09.820Z,39.03
2023-04-21T09:28:38.112Z,40.97
2023-04-21T09:31:07.981Z,38.10
2023-04-21T09:33:45.700Z,37.27
2023-04-21T09:36:22.735Z,36.27
2023-04-21T09:41:32.332Z,37.43
2023-04-21T09:44:01.641Z,36.53
2023-04-21T09:46:32.275Z,33.67
2023-04-21T09:49:01.571Z,30.87
2023-04-21T09:51:55.723Z,30.60
2023-04-21T09:54:28.974Z,32.07
2023-04-21T09:56:58.494Z,31.30
2023-04-21T09:59:27.758Z,31.87
2023-04-21T10:01:57.765Z,31.10
2023-04-21T10:04:26.727Z,32.23
2023-04-21T10:06:55.583Z,30.10
2023-04-21T10:09:24.547Z,33.87
2023-04-21T10:11:53.448Z,33.07
2023-04-21T10:14:22.081Z,31.13
2023-04-21T10:16:59.086Z,30.23
2023-04-21T10:19:27.778Z,29.90
2023-04-21T10:21:57.553Z,29.00
2023-04-21T10:24:25.929Z,28.27
2023-04-21T10:26:55.269Z,25.80
2023-04-21T10:29:40.270Z,25.87
2023-04-21T10:32:14.020Z,25.17
2023-04-21T10:34:42.563Z,23.20
2023-04-21T10:37:12.916Z,23.13
2023-04-21T10:39:44.954Z,23.20
2023-04-21T10:42:24.647Z,22.53
2023-04-21T10:44:54.076Z,22.63
2023-04-21T10:47:29.807Z,21.30
2023-04-21T10:49:58.448Z,20.27
2023-04-21T10:52:33.747Z,21.00
2023-04-21T10:55:10.574Z,21.30
2023-04-21T10:57:39.072Z,20.30
2023-04-21T11:00:09.191Z,19.20
2023-04-21T11:02:40.541Z,19.17
2023-04-21T11:05:10.835Z,17.90
2023-04-21T11:07:39.224Z,16.57
2023-04-21T11:10:08.440Z,16.33
2023-04-21T11:12:37.715Z,14.90
2023-04-21T11:15:08.527Z,15.90
2023-04-21T11:17:38.185Z,14.63
2023-04-21T11:20:09.070Z,14.90
2023-04-21T11:22:38.657Z,14.30
2023-04-21T11:25:07.545Z,15.83
2023-04-21T11:27:35.916Z,15.87
2023-04-21T11:30:05.925Z,14.70
2023-04-21T11:32:35.591Z,15.57
2023-04-21T11:35:06.329Z,15.40
2023-04-21T11:37:36.141Z,14.87
2023-04-21T11:40:06.657Z,14.97
2023-04-21T11:42:35.004Z,17.27
2023-04-21T11:45:04.284Z,15.30
2023-04-21T11:47:33.077Z,14.87
2023-04-21T11:50:02.507Z,15.10
2023-04-21T11:52:32.964Z,15.83
2023-04-21T11:55:03.678Z,14.73
2023-04-21T11:57:32.593Z,15.57
2023-04-21T12:00:01.170Z,14.97
2023-04-21T12:02:30.283Z,16.40
2023-04-21T12:05:00.378Z,15.07
2023-04-21T12:07:29.231Z,15.60
2023-04-21T12:09:57.788Z,16.20
2023-04-21T12:12:27.875Z,15.90
2023-04-21T12:14:56.334Z,17.47
2023-04-21T12:17:24.883Z,17.87
2023-04-21T12:19:53.379Z,18.27
2023-04-21T12:22:23.548Z,16.83
2023-04-21T12:24:51.961Z,16.70
2023-04-21T12:27:20.373Z,16.43
2023-04-21T12:29:50.116Z,16.93
2023-04-21T12:32:18.579Z,16.33
2023-04-21T12:34:47.172Z,15.97
2023-04-21T12:37:15.988Z,16.53
2023-04-21T12:39:44.537Z,16.70
2023-04-21T12:42:12.991Z,16.03
2023-04-21T12:44:41.758Z,16.63
2023-04-21T12:47:11.553Z,16.27
2023-04-21T12:49:39.923Z,15.53
2023-04-21T12:52:08.381Z,15.60
2023-04-21T12:54:36.931Z,15.77
2023-04-21T12:57:06.430Z,14.50
2023-04-21T12:59:34.845Z,14.50
2023-04-21T13:02:03.307Z,13.73
2023-04-21T13:04:33.605Z,13.73
2023-04-21T13:07:02.426Z,13.57
2023-04-21T13:09:31.747Z,14.73
2023-04-21T13:12:01.926Z,12.33
2023-04-21T13:14:30.438Z,12.83
2023-04-21T13:16:58.852Z,12.77
2023-04-21T13:19:28.682Z,14.30
2023-04-21T13:21:58.916Z,12.43
2023-04-21T13:24:27.755Z,12.30
2023-04-21T13:26:57.352Z,11.53
2023-04-21T13:29:29.442Z,11.50
2023-04-21T13:31:58.473Z,12.53
2023-04-21T13:34:26.986Z,11.90
2023-04-21T13:36:56.263Z,11.93
2023-04-21T13:39:26.515Z,11.93
2023-04-21T13:41:55.108Z,11.53
2023-04-21T13:44:23.557Z,11.40
2023-04-21T13:46:54.071Z,11.73
2023-04-21T13:49:22.574Z,11.43
2023-04-21T13:51:51.043Z,10.80
2023-04-21T13:54:19.434Z,12.27
2023-04-21T13:56:49.359Z,13.27
2023-04-21T13:59:17.938Z,14.27
2023-04-21T14:01:46.674Z,12.63
2023-04-21T14:04:15.363Z,13.07
2023-04-21T14:06:44.048Z,12.67
2023-04-21T14:09:12.657Z,13.20
2023-04-21T14:11:41.178Z,14.10
2023-04-21T14:14:10.980Z,14.70
2023-04-21T14:16:39.765Z,13.77
2023-04-21T14:19:08.451Z,14.40
2023-04-21T14:21:37.105Z,14.90
2023-04-21T14:24:08.856Z,14.60
2023-04-21T14:26:37.694Z,15.03
2023-04-21T14:29:06.099Z,14.93
2023-04-21T14:31:36.289Z,14.13
2023-04-21T14:34:04.767Z,14.10
2023-04-21T14:36:33.451Z,15.17
2023-04-21T14:39:01.827Z,15.20
2023-04-21T14:41:30.886Z,15.17
2023-04-21T14:44:00.476Z,15.93
2023-04-21T14:46:29.445Z,19.00
2023-04-21T14:48:59.419Z,15.70
2023-04-21T14:51:32.245Z,14.50
2023-04-21T14:54:00.883Z,15.97
2023-04-21T14:56:29.335Z,16.17
2023-04-21T14:58:57.955Z,14.77
2023-04-21T15:01:26.539Z,14.83
2023-04-21T15:03:57.920Z,15.17
2023-04-21T15:06:28.516Z,15.33
2023-04-21T15:08:57.013Z,16.20
2023-04-21T15:11:25.500Z,15.73
2023-04-21T15:14:00.361Z,16.03
2023-04-21T15:16:28.742Z,15.40
2023-04-21T15:18:57.261Z,15.87
2023-04-21T15:21:30.082Z,15.60
2023-04-21T15:23:58.610Z,17.83
2023-04-21T15:26:26.992Z,17.40
2023-04-21T15:28:55.427Z,16.50
2023-04-21T15:31:23.982Z,17.67
2023-04-21T15:33:52.720Z,18.83
2023-04-21T15:36:21.538Z,18.30
2023-04-21T15:38:51.361Z,20.13
2023-04-21T15:41:19.820Z,20.30
2023-04-21T15:43:48.292Z,21.67
2023-04-21T15:46:16.765Z,19.67
2023-04-21T15:48:45.506Z,21.03
2023-04-21T15:51:14.472Z,20.07
2023-04-21T15:53:47.556Z,20.63
2023-04-21T15:56:17.817Z,20.47
2023-04-21T15:58:46.531Z,22.67
2023-04-21T16:01:15.609Z,24.60
2023-04-21T16:03:44.335Z,22.83
2023-04-21T16:06:13.089Z,22.53
2023-04-21T16:08:41.568Z,22.63
2023-04-21T16:11:09.933Z,25.70
2023-04-21T16:13:39.732Z,22.47
2023-04-21T16:16:08.916Z,21.03
2023-04-21T16:18:38.184Z,24.40
2023-04-21T16:21:06.721Z,23.77
2023-04-21T16:23:35.396Z,25.63
2023-04-21T16:26:05.949Z,23.33
2023-04-21T16:28:35.031Z,22.17
2023-04-21T16:31:05.078Z,21.30
2023-04-21T16:33:33.616Z,23.90
2023-04-21T16:36:02.100Z,23.23
2023-04-21T16:38:30.564Z,24.40
2023-04-21T16:40:59.056Z,23.70
2023-04-21T16:43:27.771Z,22.80
2023-04-21T16:45:56.369Z,25.30
2023-04-21T16:48:26.267Z,22.53
2023-04-21T16:50:55.160Z,23.00
2023-04-21T16:53:25.558Z,23.63
2023-04-21T16:55:54.200Z,25.33
2023-04-21T16:58:24.681Z,23.57
2023-04-21T17:00:53.254Z,23.60
2023-04-21T17:03:21.895Z,24.47
2023-04-21T17:05:51.860Z,23.83
2023-04-21T17:08:20.411Z,24.13
2023-04-21T17:10:48.936Z,24.07
2023-04-21T17:13:17.346Z,24.83
2023-04-21T17:15:45.790Z,24.13
2023-04-21T17:18:14.207Z,26.70
2023-04-21T17:20:45.931Z,24.17
2023-04-21T17:23:15.763Z,24.60
2023-04-21T17:25:44.252Z,25.63
2023-04-21T17:28:14.786Z,24.10
2023-04-21T17:30:43.151Z,26.27
2023-04-21T17:33:16.947Z,24.93
2023-04-21T17:35:55.746Z,25.40
2023-04-21T17:38:32.221Z,25.23
2023-04-21T17:41:01.984Z,26.13
2023-04-21T17:43:30.674Z,24.17
2023-04-21T17:45:59.153Z,23.90
2023-04-21T17:48:28.001Z,23.40
2023-04-21T17:50:56.446Z,24.00
2023-04-21T17:53:24.960Z,26.50
2023-04-21T17:55:54.819Z,24.97
2023-04-21T17:58:23.358Z,23.50
2023-04-21T18:00:51.808Z,25.77
2023-04-21T18:03:20.536Z,27.40
2023-04-21T18:05:49.048Z,27.13
2023-04-21T18:08:17.474Z,25.90
2023-04-21T18:10:46.006Z,25.27
2023-04-21T18:13:15.765Z,26.10
2023-04-21T18:15:44.296Z,25.30
2023-04-21T18:18:13.180Z,22.87
2023-04-21T18:20:41.985Z,22.53
2023-04-21T18:23:10.374Z,21.83
2023-04-21T18:25:41.950Z,26.23
2023-04-21T18:28:12.813Z,18.57
2023-04-21T18:30:42.948Z,14.47
2023-04-21T18:33:11.960Z,13.70
2023-04-21T18:35:40.525Z,12.57
2023-04-21T18:38:10.569Z,14.90
2023-04-21T18:40:40.581Z,13.20
2023-04-21T18:43:09.781Z,12.63
2023-04-21T18:45:38.625Z,12.87
2023-04-21T18:48:08.617Z,20.93
2023-04-21T18:50:40.049Z,13.90
2023-04-21T18:53:09.245Z,11.90
2023-04-21T18:55:37.892Z,13.10
2023-04-21T18:58:06.416Z,14.57
2023-04-21T19:00:37.548Z,14.30
2023-04-21T19:03:07.783Z,12.97
2023-04-21T19:05:37.720Z,16.80
2023-04-21T19:08:06.313Z,18.37
2023-04-21T19:10:35.556Z,14.27
2023-04-21T19:13:04.325Z,16.10
2023-04-21T19:15:32.713Z,11.17
2023-04-21T19:18:01.262Z,12.33
2023-04-21T19:20:32.452Z,15.17
2023-04-21T19:23:01.314Z,15.07
2023-04-21T19:25:29.692Z,14.50
2023-04-21T19:27:58.165Z,13.40
2023-04-21T19:30:26.529Z,14.90
2023-04-21T19:32:54.907Z,14.23
2023-04-21T19:35:23.311Z,13.20
2023-04-21T19:37:53.253Z,12.10
2023-04-21T19:40:21.856Z,13.93
2023-04-21T19:42:50.325Z,13.47
2023-04-21T19:45:18.752Z,15.57
2023-04-21T19:47:47.897Z,9.93
2023-04-21T19:50:16.466Z,10.20
2023-04-21T19:52:46.549Z,10.50
2023-04-21T19:55:16.511Z,10.27
2023-04-21T19:57:44.919Z,11.53
2023-04-21T20:00:14.332Z,11.63
2023-04-21T20:02:43.444Z,16.73
2023-04-21T20:05:11.973Z,13.27
2023-04-21T20:07:40.734Z,14.67
2023-04-21T20:10:09.327Z,14.53
2023-04-21T20:12:39.100Z,13.83
2023-04-21T20:15:08.381Z,15.33
2023-04-21T20:17:36.977Z,20.83
2023-04-21T20:20:07.076Z,17.37
2023-04-21T20:22:37.062Z,18.07
2023-04-21T20:25:06.077Z,20.50
2023-04-21T20:27:34.484Z,20.33
2023-04-21T20:30:04.530Z,20.50
2023-04-21T20:32:33.002Z,24.70
2023-04-21T20:35:02.210Z,22.10
2023-04-21T20:37:33.527Z,19.13
2023-04-21T20:40:04.553Z,23.17
2023-04-21T20:42:33.449Z,19.60
2023-04-21T20:45:03.639Z,22.13
2023-04-21T20:47:33.954Z,20.80
2023-04-21T20:50:02.426Z,22.40
2023-04-21T20:52:30.928Z,18.83
2023-04-21T20:54:59.392Z,20.67
2023-04-21T20:57:29.781Z,21.27
2023-04-21T20:59:58.142Z,18.80
2023-04-21T21:02:26.737Z,17.20
2023-04-21T21:04:57.470Z,18.27
2023-04-21T21:07:25.866Z,15.57
2023-04-21T21:09:54.257Z,21.73
2023-04-21T21:12:22.684Z,17.43
2023-04-21T21:14:51.144Z,19.07
2023-04-21T21:17:19.846Z,23.00
2023-04-21T21:19:49.266Z,18.73
2023-04-21T21:22:19.122Z,15.10
2023-04-21T21:24:48.890Z,19.17
2023-04-21T21:27:17.251Z,17.40
2023-04-21T21:29:45.701Z,20.53
2023-04-21T21:32:14.270Z,21.37
2023-04-21T21:34:42.615Z,20.33
2023-04-21T21:37:10.992Z,17.63
2023-04-21T21:39:40.921Z,23.03
2023-04-21T21:42:11.813Z,18.10
2023-04-21T21:44:40.163Z,21.23
2023-04-21T21:47:08.947Z,17.80
2023-04-21T21:49:38.405Z,20.83
2023-04-21T21:52:07.077Z,25.50
2023-04-21T21:54:35.791Z,21.90
2023-04-21T21:57:08.393Z,21.27
2023-04-21T21:59:37.135Z,16.47
2023-04-21T22:02:05.960Z,22.17
2023-04-21T22:04:34.526Z,16.67
2023-04-21T22:07:03.972Z,17.90
2023-04-21T22:09:32.404Z,18.97
2023-04-21T22:12:01.199Z,19.90
2023-04-21T22:14:31.321Z,21.27
2023-04-21T22:16:59.693Z,17.27
2023-04-21T22:19:28.993Z,19.77
2023-04-21T22:21:57.462Z,20.63
2023-04-21T22:24:25.845Z,15.37
2023-04-21T22:26:54.214Z,18.63
2023-04-21T22:29:22.539Z,23.83
2023-04-21T22:31:52.521Z,22.77
2023-04-21T22:34:21.058Z,27.27
2023-04-21T22:36:49.379Z,23.50
2023-04-21T22:39:17.823Z,20.83
2023-04-21T22:41:46.310Z,22.63
2023-04-21T22:44:14.789Z,19.37
2023-04-21T22:46:43.386Z,22.93
2023-04-21T22:49:13.373Z,29.67
2023-04-21T22:51:42.417Z,25.80
2023-04-21T22:54:11.015Z,21.53
2023-04-21T22:56:39.410Z,24.77
2023-04-21T22:59:07.914Z,26.23
2023-04-21T23:01:36.465Z,20.73
2023-04-21T23:04:05.070Z,21.67
2023-04-21T23:06:35.094Z,21.40
2023-04-21T23:09:04.137Z,24.30
2023-04-21T23:11:32.884Z,23.93
2023-04-21T23:14:01.448Z,25.03
2023-04-21T23:16:29.892Z,25.20
2023-04-21T23:18:58.329Z,29.87
2023-04-21T23:21:26.917Z,27.47
2023-04-21T23:23:58.254Z,28.43
2023-04-21T23:26:26.944Z,29.77
2023-04-21T23:28:55.292Z,26.20
2023-04-21T23:31:23.780Z,28.07
2023-04-21T23:33:52.246Z,32.27
2023-04-21T23:36:20.681Z,25.27
2023-04-21T23:38:49.168Z,24.73
2023-04-21T23:41:19.072Z,31.27
2023-04-21T23:43:47.475Z,30.23
2023-04-21T23:46:16.571Z,26.63
2023-04-21T23:48:45.232Z,29.40
2023-04-21T23:51:13.827Z,27.93
2023-04-21T23:53:42.289Z,26.90
2023-04-21T23:56:11.015Z,25.73
2023-04-21T23:58:40.776Z,27.00
